createdAt,value
2023-03-17T00:15:41.328Z,3.22
2023-03-17T00:18:18.576Z,2.33
2023-03-17T00:20:48.056Z,4.35
2023-03-17T00:23:23.785Z,4.05
2023-03-17T00:25:52.607Z,2.45
2023-03-17T00:28:23.951Z,2.30
2023-03-17T00:31:01.150Z,3.00
2023-03-17T00:33:34.381Z,2.00
2023-03-17T00:36:03.010Z,4.18
2023-03-17T00:38:31.203Z,2.63
2023-03-17T00:40:59.383Z,2.60
2023-03-17T00:43:29.235Z,3.95
2023-03-17T00:45:58.636Z,3.50
2023-03-17T00:48:27.970Z,4.28
2023-03-17T00:50:56.463Z,2.35
2023-03-17T00:53:24.714Z,2.97
2023-03-17T00:55:53.125Z,2.42
2023-03-17T00:58:29.906Z,2.42
2023-03-17T01:00:58.482Z,3.47
2023-03-17T01:03:27.472Z,3.40
2023-03-17T01:05:57.181Z,2.83
2023-03-17T01:08:26.517Z,4.72
2023-03-17T01:10:54.679Z,3.88
2023-03-17T01:13:23.044Z,4.72
2023-03-17T01:18:23.104Z,2.47
2023-03-17T01:20:52.193Z,2.88
2023-03-17T01:23:20.333Z,3.03
2023-03-17T01:25:48.595Z,4.85
2023-03-17T01:28:19.195Z,2.97
2023-03-17T01:30:48.002Z,3.03
2023-03-17T01:33:16.170Z,2.50
2023-03-17T01:35:44.929Z,3.08
2023-03-17T01:38:14.084Z,4.78
2023-03-17T01:40:48.645Z,3.13
2023-03-17T01:43:26.129Z,4.45
2023-03-17T01:46:24.047Z,2.85
2023-03-17T01:48:59.475Z,3.20
2023-03-17T01:51:47.801Z,3.38
2023-03-17T01:54:22.500Z,3.83
2023-03-17T01:56:52.994Z,3.25
2023-03-17T01:59:26.413Z,3.40
2023-03-17T02:02:01.644Z,2.60
2023-03-17T02:04:30.314Z,4.38
2023-03-17T02:06:59.171Z,3.40
2023-03-17T02:09:29.129Z,2.38
2023-03-17T02:11:59.186Z,2.33
2023-03-17T02:14:27.905Z,3.83
2023-03-17T02:16:56.425Z,3.10
2023-03-17T02:19:24.881Z,3.83
2023-03-17T02:21:57.656Z,4.93
2023-03-17T02:24:31.638Z,4.03
2023-03-17T02:27:09.180Z,4.10
2023-03-17T02:29:37.621Z,3.80
2023-03-17T02:34:35.005Z,3.72
2023-03-17T02:37:06.018Z,3.92
2023-03-17T02:39:34.687Z,2.63
2023-03-17T02:42:04.348Z,2.45
2023-03-17T02:44:32.542Z,2.75
2023-03-17T02:47:00.687Z,5.88
2023-03-17T02:49:30.118Z,3.30
2023-03-17T02:51:58.391Z,2.33
2023-03-17T02:54:26.772Z,3.83
2023-03-17T02:59:22.771Z,3.40
2023-03-17T03:01:51.022Z,3.72
2023-03-17T03:04:20.296Z,5.82
2023-03-17T03:06:49.165Z,2.30
2023-03-17T03:09:17.328Z,2.28
2023-03-17T03:11:45.953Z,3.35
2023-03-17T03:14:14.797Z,3.67
2023-03-17T03:16:43.136Z,3.08
2023-03-17T03:19:11.307Z,4.00
2023-03-17T03:24:07.913Z,3.30
2023-03-17T03:26:36.307Z,3.00
2023-03-17T03:29:05.587Z,4.45
2023-03-17T03:31:34.057Z,4.00
2023-03-17T03:34:02.252Z,3.47
2023-03-17T03:36:30.524Z,2.17
2023-03-17T03:41:26.650Z,3.97
2023-03-17T03:43:54.777Z,5.43
2023-03-17T03:46:23.277Z,3.85
2023-03-17T03:51:19.466Z,3.17
2023-03-17T03:53:47.644Z,3.13
2023-03-17T03:56:16.024Z,2.92
2023-03-17T04:01:12.016Z,3.58
2023-03-17T04:03:40.243Z,2.75
2023-03-17T04:06:08.651Z,1.92
2023-03-17T04:08:36.820Z,3.17
2023-03-17T04:11:05.251Z,3.45
2023-03-17T04:16:01.478Z,2.85
2023-03-17T04:20:57.655Z,3.25
2023-03-17T04:23:25.909Z,3.25
2023-03-17T04:25:54.593Z,2.42
2023-03-17T04:28:22.761Z,3.15
2023-03-17T04:30:51.016Z,3.65
2023-03-17T04:33:19.172Z,3.20
2023-03-17T04:35:47.376Z,3.83
2023-03-17T04:38:15.686Z,4.00
2023-03-17T04:43:11.821Z,3.67
2023-03-17T04:45:40.138Z,2.40
2023-03-17T04:48:08.344Z,3.13
2023-03-17T04:50:36.559Z,5.75
2023-03-17T04:53:04.732Z,5.93
2023-03-17T04:55:32.893Z,3.97
2023-03-17T04:58:01.389Z,2.88
2023-03-17T05:00:29.863Z,2.25
2023-03-17T05:02:58.174Z,3.63
2023-03-17T05:05:26.523Z,3.58
2023-03-17T05:10:22.466Z,3.28
2023-03-17T05:12:50.755Z,3.28
2023-03-17T05:15:19.346Z,2.40
2023-03-17T05:17:47.668Z,2.25
2023-03-17T05:20:15.996Z,3.85
2023-03-17T05:25:12.008Z,2.85
2023-03-17T05:30:08.837Z,3.53
2023-03-17T05:32:37.121Z,3.03
2023-03-17T05:35:05.581Z,1.58
2023-03-17T05:37:33.773Z,3.20
2023-03-17T05:40:01.997Z,2.80
2023-03-17T05:42:30.342Z,3.17
2023-03-17T05:44:58.560Z,2.67
2023-03-17T05:52:23.148Z,3.45
2023-03-17T05:54:51.454Z,2.50
2023-03-17T05:59:47.743Z,2.38
2023-03-17T06:07:12.242Z,2.33
2023-03-17T06:09:40.609Z,3.20
2023-03-17T06:14:36.965Z,3.50
2023-03-17T06:19:33.081Z,1.98
2023-03-17T06:22:01.401Z,2.78
2023-03-17T06:26:57.355Z,3.45
2023-03-17T06:29:25.770Z,2.47
2023-03-17T06:34:23.773Z,2.75
2023-03-17T06:36:52.009Z,2.63
2023-03-17T06:39:20.099Z,2.13
2023-03-17T06:41:48.466Z,1.92
2023-03-17T06:44:16.908Z,2.17
2023-03-17T06:46:45.299Z,2.85
2023-03-17T06:51:41.663Z,2.17
2023-03-17T06:56:37.857Z,2.38
2023-03-17T06:59:06.271Z,3.38
2023-03-17T07:04:02.263Z,2.38
2023-03-17T07:06:30.545Z,1.83
2023-03-17T07:11:30.558Z,3.15
2023-03-17T07:13:59.089Z,3.13
2023-03-17T07:16:27.295Z,1.77
2023-03-17T07:18:56.302Z,3.75
2023-03-17T07:21:24.519Z,2.55
2023-03-17T07:26:20.653Z,2.45
2023-03-17T07:28:48.902Z,3.83
2023-03-17T07:31:17.493Z,2.25
2023-03-17T07:33:45.856Z,5.55
2023-03-17T07:36:14.990Z,1.85
2023-03-17T07:38:43.196Z,2.70
2023-03-17T07:41:11.319Z,3.83
2023-03-17T07:43:39.603Z,2.88
2023-03-17T07:46:07.723Z,3.05
2023-03-17T07:48:36.035Z,3.38
2023-03-17T07:51:04.241Z,5.03
2023-03-17T07:53:32.586Z,3.92
2023-03-17T07:58:28.708Z,3.70
2023-03-17T08:00:56.766Z,4.63
2023-03-17T08:03:25.172Z,2.83
2023-03-17T08:08:25.520Z,4.40
2023-03-17T08:10:58.433Z,2.17
2023-03-17T08:13:26.851Z,4.40
2023-03-17T08:18:23.390Z,2.95
2023-03-17T08:20:51.848Z,3.15
2023-03-17T08:23:21.061Z,2.90
2023-03-17T08:25:49.555Z,3.78
2023-03-17T08:28:17.828Z,3.63
2023-03-17T08:30:47.528Z,3.67
2023-03-17T08:33:17.886Z,3.35
2023-03-17T08:35:46.276Z,2.17
2023-03-17T08:38:14.777Z,3.47
2023-03-17T08:40:43.012Z,3.20
2023-03-17T08:55:40.753Z,5.63
2023-03-17T08:58:09.041Z,3.60
2023-03-17T09:00:37.261Z,3.15
2023-03-17T09:03:05.705Z,5.13
2023-03-17T09:08:05.323Z,2.85
2023-03-17T09:13:02.023Z,4.25
2023-03-17T09:17:58.972Z,3.63
2023-03-17T09:20:27.395Z,3.85
2023-03-17T09:25:23.874Z,2.60
2023-03-17T09:30:20.286Z,2.95
2023-03-17T09:35:16.683Z,2.13
2023-03-17T09:40:17.857Z,2.08
2023-03-17T09:43:01.182Z,5.05
2023-03-17T09:45:37.464Z,2.65
2023-03-17T09:48:29.219Z,3.03
2023-03-17T09:51:09.437Z,4.00
2023-03-17T09:53:42.192Z,3.10
2023-03-17T09:56:18.237Z,2.15
2023-03-17T09:59:08.479Z,2.20
2023-03-17T10:01:44.992Z,4.00
2023-03-17T10:04:13.492Z,5.20
2023-03-17T10:09:47.652Z,3.15
2023-03-17T10:12:54.312Z,2.88
2023-03-17T10:15:37.872Z,2.78
2023-03-17T10:18:17.862Z,4.07
2023-03-17T10:21:02.756Z,2.85
2023-03-17T10:23:36.702Z,2.58
2023-03-17T10:26:32.067Z,2.67
2023-03-17T10:29:00.697Z,3.75
2023-03-17T10:31:32.121Z,3.35
2023-03-17T10:34:16.342Z,3.25
2023-03-17T10:36:49.061Z,3.75
2023-03-17T10:39:22.839Z,3.22
2023-03-17T10:42:11.769Z,3.42
2023-03-17T10:45:06.911Z,5.53
2023-03-17T10:47:44.935Z,5.28
2023-03-17T10:50:16.092Z,2.90
2023-03-17T10:52:45.598Z,4.18
2023-03-17T10:55:18.834Z,2.83
2023-03-17T10:58:01.044Z,4.13
2023-03-17T11:00:32.688Z,4.47
2023-03-17T11:03:04.937Z,4.32
2023-03-17T11:05:33.186Z,2.70
2023-03-17T11:08:15.745Z,3.47
2023-03-17T11:10:44.518Z,4.80
2023-03-17T11:13:17.809Z,3.17
2023-03-17T11:15:58.758Z,3.35
2023-03-17T11:18:35.446Z,3.97
2023-03-17T11:21:20.864Z,2.60
2023-03-17T11:23:59.700Z,3.65
2023-03-17T11:26:55.905Z,4.53
2023-03-17T11:29:44.375Z,3.42
2023-03-17T11:32:12.525Z,3.83
2023-03-17T11:35:01.213Z,3.25
2023-03-17T11:37:47.118Z,4.43
2023-03-17T11:40:31.503Z,4.25
2023-03-17T11:43:23.943Z,3.00
2023-03-17T11:46:24.611Z,3.88
2023-03-17T11:49:16.515Z,4.45
2023-03-17T11:51:50.142Z,3.47
2023-03-17T11:54:18.618Z,5.47
2023-03-17T11:56:51.774Z,3.58
2023-03-17T11:59:29.544Z,4.95
2023-03-17T12:02:30.372Z,4.03
2023-03-17T12:05:08.788Z,4.63
2023-03-17T12:07:48.712Z,4.82
2023-03-17T12:10:55.740Z,6.38
2023-03-17T12:13:57.993Z,3.23
2023-03-17T12:16:47.980Z,4.70
2023-03-17T12:20:01.150Z,4.80
2023-03-17T12:22:34.709Z,5.32
2023-03-17T12:25:34.063Z,6.22
2023-03-17T12:28:19.336Z,5.22
2023-03-17T12:30:54.727Z,5.43
2023-03-17T12:33:31.580Z,4.63
2023-03-17T12:36:00.559Z,4.85
2023-03-17T12:38:31.949Z,6.32
2023-03-17T12:41:27.860Z,4.97
2023-03-17T12:44:17.370Z,6.07
2023-03-17T12:47:06.956Z,5.47
2023-03-17T12:49:47.285Z,5.38
2023-03-17T12:52:27.900Z,6.47
2023-03-17T12:55:00.887Z,4.28
2023-03-17T12:57:36.863Z,5.38
2023-03-17T13:00:16.976Z,5.80
2023-03-17T13:02:51.385Z,5.05
2023-03-17T13:05:32.491Z,7.93
2023-03-17T13:08:04.463Z,7.82
2023-03-17T13:10:45.383Z,4.72
2023-03-17T13:13:44.743Z,6.43
2023-03-17T13:16:30.563Z,6.13
2023-03-17T13:19:13.701Z,3.80
2023-03-17T13:22:05.300Z,5.72
2023-03-17T13:24:50.342Z,5.32
2023-03-17T13:27:34.027Z,9.00
2023-03-17T13:30:23.667Z,6.82
2023-03-17T13:33:20.243Z,6.30
2023-03-17T13:36:23.685Z,6.43
2023-03-17T13:39:23.550Z,7.30
2023-03-17T13:42:24.452Z,7.68
2023-03-17T13:45:08.567Z,6.30
2023-03-17T13:47:39.384Z,7.95
2023-03-17T13:50:26.152Z,5.55
2023-03-17T13:53:03.155Z,6.78
2023-03-17T13:55:36.860Z,8.10
2023-03-17T13:58:10.942Z,8.27
2023-03-17T14:00:49.240Z,5.63
2023-03-17T14:03:25.713Z,8.48
2023-03-17T14:05:54.966Z,9.98
2023-03-17T14:08:59.806Z,6.75
2023-03-17T14:11:33.627Z,9.38
2023-03-17T14:14:32.190Z,7.70
2023-03-17T14:17:24.131Z,5.43
2023-03-17T14:20:01.488Z,7.40
2023-03-17T14:22:29.994Z,7.18
2023-03-17T14:25:01.613Z,6.68
2023-03-17T14:27:33.579Z,5.90
2023-03-17T14:30:16.392Z,7.72
2023-03-17T14:32:50.864Z,8.30
2023-03-17T14:35:20.247Z,4.63
2023-03-17T14:37:48.660Z,5.30
2023-03-17T14:42:55.337Z,5.28
2023-03-17T14:45:31.384Z,8.00
2023-03-17T14:48:02.087Z,8.93
2023-03-17T14:50:33.953Z,6.45
2023-03-17T14:53:02.466Z,5.70
2023-03-17T14:55:43.066Z,5.65
2023-03-17T14:58:27.086Z,8.48
2023-03-17T15:01:08.291Z,4.70
2023-03-17T15:03:40.854Z,5.63
2023-03-17T15:06:26.243Z,10.15
2023-03-17T15:08:57.779Z,6.65
2023-03-17T15:11:36.733Z,8.68
2023-03-17T15:14:15.544Z,8.95
2023-03-17T15:16:49.713Z,7.75
2023-03-17T15:19:30.601Z,6.05
2023-03-17T15:21:58.846Z,5.20
2023-03-17T15:24:37.825Z,7.20
2023-03-17T15:27:32.396Z,8.07
2023-03-17T15:30:00.703Z,7.05
2023-03-17T15:32:29.404Z,7.05
2023-03-17T15:34:59.126Z,7.18
2023-03-17T15:37:30.632Z,9.55
2023-03-17T15:40:00.632Z,6.60
2023-03-17T15:42:34.484Z,7.03
2023-03-17T15:45:03.755Z,6.72
2023-03-17T15:47:34.450Z,7.30
2023-03-17T15:50:24.049Z,5.72
2023-03-17T15:52:52.542Z,6.35
2023-03-17T15:57:55.591Z,7.68
2023-03-17T16:00:26.668Z,7.03
2023-03-17T16:02:58.457Z,7.53
2023-03-17T16:05:29.781Z,6.10
2023-03-17T16:07:58.619Z,8.07
2023-03-17T16:10:29.361Z,5.55
2023-03-17T16:12:58.006Z,5.63
2023-03-17T16:17:59.054Z,5.55
2023-03-17T16:20:29.626Z,7.30
2023-03-17T16:23:04.897Z,7.90
2023-03-17T16:25:34.132Z,7.65
2023-03-17T16:28:08.362Z,7.13
2023-03-17T16:30:36.784Z,8.27
2023-03-17T16:33:16.249Z,7.57
2023-03-17T16:35:44.779Z,11.15
2023-03-17T16:38:20.219Z,9.35
2023-03-17T16:40:54.362Z,5.75
2023-03-17T16:43:32.168Z,6.43
2023-03-17T16:46:02.463Z,6.43
2023-03-17T16:48:31.077Z,8.15
2023-03-17T16:50:59.826Z,6.18
2023-03-17T16:53:28.166Z,8.00
2023-03-17T16:58:34.406Z,9.60
2023-03-17T17:01:07.035Z,6.82
2023-03-17T17:03:35.256Z,6.95
2023-03-17T17:06:03.515Z,7.47
2023-03-17T17:10:59.836Z,7.72
2023-03-17T17:15:56.584Z,8.13
2023-03-17T17:18:25.017Z,10.18
2023-03-17T17:20:54.480Z,10.73
2023-03-17T17:23:25.683Z,9.52
2023-03-17T17:25:55.175Z,10.40
2023-03-17T17:28:25.327Z,6.50
2023-03-17T17:30:54.068Z,7.80
2023-03-17T17:33:22.664Z,5.60
2023-03-17T17:35:51.552Z,7.60
2023-03-17T17:38:25.293Z,8.43
2023-03-17T17:40:54.686Z,6.75
2023-03-17T17:43:23.230Z,6.45
2023-03-17T17:45:52.697Z,9.65
2023-03-17T17:48:23.760Z,6.28
2023-03-17T17:50:53.931Z,9.50
2023-03-17T17:53:22.636Z,8.13
2023-03-17T17:55:51.447Z,6.88
2023-03-17T17:58:25.087Z,8.40
2023-03-17T18:00:54.065Z,8.98
2023-03-17T18:03:22.662Z,11.65
2023-03-17T18:05:51.366Z,7.15
2023-03-17T18:08:19.629Z,6.40
2023-03-17T18:10:49.661Z,6.80
2023-03-17T18:13:19.157Z,8.40
2023-03-17T18:15:47.297Z,7.10
2023-03-17T18:20:43.644Z,7.30
2023-03-17T18:23:11.894Z,7.78
2023-03-17T18:25:40.078Z,6.10
2023-03-17T18:30:36.896Z,6.03
2023-03-17T18:33:14.001Z,8.70
2023-03-17T18:35:42.853Z,11.27
2023-03-17T18:38:11.046Z,6.57
2023-03-17T18:40:39.534Z,6.88
2023-03-17T18:43:07.938Z,7.65
2023-03-17T18:48:04.483Z,8.73
2023-03-17T18:50:33.230Z,6.03
2023-03-17T18:53:01.980Z,8.80
2023-03-17T18:55:30.387Z,8.05
2023-03-17T18:57:58.757Z,7.35
2023-03-17T19:02:55.003Z,9.02
2023-03-17T19:05:23.642Z,7.40
2023-03-17T19:07:52.302Z,7.25
2023-03-17T19:10:20.660Z,7.22
2023-03-17T19:12:48.911Z,9.85
2023-03-17T19:15:17.162Z,8.40
2023-03-17T19:30:59.590Z,7.65
2023-03-17T19:33:27.966Z,5.72
2023-03-17T19:38:26.345Z,8.77
2023-03-17T19:40:54.739Z,9.40
2023-03-17T19:43:39.534Z,8.38
2023-03-17T19:46:10.586Z,6.82
2023-03-17T19:48:39.092Z,7.13
2023-03-17T19:51:14.592Z,6.13
2023-03-17T19:53:42.993Z,5.82
2023-03-17T19:58:39.032Z,6.78
2023-03-17T20:03:36.280Z,8.80
2023-03-17T20:06:04.806Z,7.53
2023-03-17T20:08:33.963Z,7.93
2023-03-17T20:11:02.846Z,8.73
2023-03-17T20:13:31.085Z,6.78
2023-03-17T20:15:59.532Z,8.50
2023-03-17T20:20:56.626Z,5.32
2023-03-17T20:23:25.895Z,9.82
2023-03-17T20:25:54.689Z,6.53
2023-03-17T20:28:23.119Z,7.75
2023-03-17T20:30:51.772Z,7.25
2023-03-17T20:35:48.079Z,5.32
2023-03-17T20:40:44.448Z,7.57
2023-03-17T20:55:56.574Z,8.07
2023-03-17T20:58:24.988Z,10.82
2023-03-17T21:08:17.384Z,8.32
2023-03-17T21:13:13.706Z,6.40
2023-03-17T21:15:42.181Z,5.45
2023-03-17T21:20:38.453Z,5.05
2023-03-17T21:28:04.351Z,7.93
2023-03-17T21:30:33.454Z,9.82
2023-03-17T21:33:02.320Z,6.07
2023-03-17T21:35:31.363Z,8.70
2023-03-17T21:37:59.693Z,5.93
2023-03-17T21:52:50.024Z,7.32
2023-03-17T21:55:18.281Z,8.70
2023-03-17T22:00:15.104Z,8.25
2023-03-17T22:02:44.857Z,6.20
2023-03-17T22:07:41.319Z,7.53
2023-03-17T22:10:10.499Z,10.73
2023-03-17T22:12:39.527Z,7.15
2023-03-17T22:15:08.407Z,11.75
2023-03-17T22:17:36.998Z,7.22
2023-03-17T22:20:05.812Z,6.75
2023-03-17T22:22:34.255Z,7.22
2023-03-17T22:27:30.520Z,6.78
2023-03-17T22:32:27.183Z,6.60
2023-03-17T22:34:55.422Z,8.07
2023-03-17T22:39:51.939Z,5.65
2023-03-17T22:42:20.159Z,6.45
2023-03-17T22:47:16.401Z,7.60
2023-03-17T22:49:44.905Z,7.88
2023-03-17T22:54:41.167Z,6.60
2023-03-17T22:57:09.720Z,8.20
2023-03-17T22:59:38.100Z,7.13
2023-03-17T23:04:34.822Z,8.07
2023-03-17T23:07:03.144Z,7.22
2023-03-17T23:09:31.817Z,6.25
2023-03-17T23:12:00.482Z,7.45
2023-03-17T23:14:28.913Z,6.45
2023-03-17T23:19:25.243Z,7.63
2023-03-17T23:21:53.402Z,6.07
2023-03-17T23:26:49.846Z,6.65
2023-03-17T23:29:18.084Z,6.32
2023-03-17T23:31:46.496Z,6.50
2023-03-17T23:34:14.858Z,6.68
2023-03-17T23:36:43.207Z,7.38
2023-03-17T23:41:39.841Z,6.68
2023-03-17T23:44:09.859Z,10.13
2023-03-17T23:46:38.776Z,6.60
2023-03-17T23:49:07.266Z,6.25
2023-03-17T23:51:36.134Z,7.00
2023-03-17T23:54:04.611Z,8.38
2023-03-17T23:56:33.100Z,6.53
2023-03-17T23:59:01.852Z,7.30
